sensor_id;sensor_type;location;lat;lon;timestamp;temperature;humidity
23051;DHT22;11693;51.358;12.410;2022-08-11T00:00:05;23.30;56.80
23051;DHT22;11693;51.358;12.410;2022-08-11T00:02:47;23.20;56.90
23051;DHT22;11693;51.358;12.410;2022-08-11T00:05:18;23.20;57.50
23051;DHT22;11693;51.358;12.410;2022-08-11T00:07:49;23.20;57.60
23051;DHT22;11693;51.358;12.410;2022-08-11T00:10:18;23.10;57.60
23051;DHT22;11693;51.358;12.410;2022-08-11T00:12:51;23.20;57.90
23051;DHT22;11693;51.358;12.410;2022-08-11T00:15:17;23.10;57.60
23051;DHT22;11693;51.358;12.410;2022-08-11T00:17:43;23.10;57.60
23051;DHT22;11693;51.358;12.410;2022-08-11T00:20:13;23.00;58.00
23051;DHT22;11693;51.358;12.410;2022-08-11T00:22:41;23.00;58.00
23051;DHT22;11693;51.358;12.410;2022-08-11T00:25:16;23.00;57.90
23051;DHT22;11693;51.358;12.410;2022-08-11T00:27:42;23.00;57.80
23051;DHT22;11693;51.358;12.410;2022-08-11T00:30:10;23.00;57.30
23051;DHT22;11693;51.358;12.410;2022-08-11T00:32:37;23.00;57.60
23051;DHT22;11693;51.358;12.410;2022-08-11T00:35:04;22.90;57.90
23051;DHT22;11693;51.358;12.410;2022-08-11T00:37:32;23.00;57.70
23051;DHT22;11693;51.358;12.410;2022-08-11T00:40:00;23.10;57.00
23051;DHT22;11693;51.358;12.410;2022-08-11T00:46:08;23.20;56.70
23051;DHT22;11693;51.358;12.410;2022-08-11T00:48:47;23.20;56.60
23051;DHT22;11693;51.358;12.410;2022-08-11T00:51:23;23.20;56.90
23051;DHT22;11693;51.358;12.410;2022-08-11T01:05:50;23.20;57.20
23051;DHT22;11693;51.358;12.410;2022-08-11T01:11:01;23.10;57.50
23051;DHT22;11693;51.358;12.410;2022-08-11T01:28:50;23.10;57.30
23051;DHT22;11693;51.358;12.410;2022-08-11T01:39:17;22.80;58.10
23051;DHT22;11693;51.358;12.410;2022-08-11T01:42:34;22.70;58.50
23051;DHT22;11693;51.358;12.410;2022-08-11T01:45:34;22.70;59.00
23051;DHT22;11693;51.358;12.410;2022-08-11T02:12:45;21.90;61.00
23051;DHT22;11693;51.358;12.410;2022-08-11T02:15:19;21.90;61.30
23051;DHT22;11693;51.358;12.410;2022-08-11T02:20:49;21.90;61.70
23051;DHT22;11693;51.358;12.410;2022-08-11T02:26:45;21.80;61.90
23051;DHT22;11693;51.358;12.410;2022-08-11T02:29:39;21.90;62.20
23051;DHT22;11693;51.358;12.410;2022-08-11T02:32:14;21.80;62.40
23051;DHT22;11693;51.358;12.410;2022-08-11T02:41:12;22.00;62.70
23051;DHT22;11693;51.358;12.410;2022-08-11T02:46:47;22.00;62.60
23051;DHT22;11693;51.358;12.410;2022-08-11T02:49:44;22.00;62.80
23051;DHT22;11693;51.358;12.410;2022-08-11T03:00:29;21.90;63.30
23051;DHT22;11693;51.358;12.410;2022-08-11T03:03:47;21.90;63.40
23051;DHT22;11693;51.358;12.410;2022-08-11T03:06:23;21.70;63.80
23051;DHT22;11693;51.358;12.410;2022-08-11T03:08:55;21.80;63.90
23051;DHT22;11693;51.358;12.410;2022-08-11T03:14:28;21.80;64.00
23051;DHT22;11693;51.358;12.410;2022-08-11T03:17:31;21.80;64.40
23051;DHT22;11693;51.358;12.410;2022-08-11T03:28:29;21.80;65.30
23051;DHT22;11693;51.358;12.410;2022-08-11T03:33:48;21.70;65.70
23051;DHT22;11693;51.358;12.410;2022-08-11T03:44:22;21.60;66.30
23051;DHT22;11693;51.358;12.410;2022-08-11T03:52:42;21.80;67.00
23051;DHT22;11693;51.358;12.410;2022-08-11T04:01:21;21.50;68.40
23051;DHT22;11693;51.358;12.410;2022-08-11T04:18:34;21.70;69.40
23051;DHT22;11693;51.358;12.410;2022-08-11T04:40:53;23.70;63.40
23051;DHT22;11693;51.358;12.410;2022-08-11T04:52:33;24.50;60.90
23051;DHT22;11693;51.358;12.410;2022-08-11T04:56:05;24.90;59.30
23051;DHT22;11693;51.358;12.410;2022-08-11T05:13:32;26.10;56.50
23051;DHT22;11693;51.358;12.410;2022-08-11T05:16:20;26.40;56.10
23051;DHT22;11693;51.358;12.410;2022-08-11T05:19:18;26.60;55.10
23051;DHT22;11693;51.358;12.410;2022-08-11T05:22:06;26.70;55.00
23051;DHT22;11693;51.358;12.410;2022-08-11T05:25:21;26.70;54.70
23051;DHT22;11693;51.358;12.410;2022-08-11T05:31:11;26.70;54.60
23051;DHT22;11693;51.358;12.410;2022-08-11T05:34:19;26.80;54.80
23051;DHT22;11693;51.358;12.410;2022-08-11T05:37:12;26.90;54.10
23051;DHT22;11693;51.358;12.410;2022-08-11T05:39:50;26.90;54.20
23051;DHT22;11693;51.358;12.410;2022-08-11T05:42:41;27.10;54.10
23051;DHT22;11693;51.358;12.410;2022-08-11T05:45:26;27.30;53.80
23051;DHT22;11693;51.358;12.410;2022-08-11T05:48:12;27.50;53.30
23051;DHT22;11693;51.358;12.410;2022-08-11T05:50:59;27.60;53.20
23051;DHT22;11693;51.358;12.410;2022-08-11T05:53:55;27.70;52.80
23051;DHT22;11693;51.358;12.410;2022-08-11T05:56:56;27.80;53.00
23051;DHT22;11693;51.358;12.410;2022-08-11T05:59:24;28.10;52.60
23051;DHT22;11693;51.358;12.410;2022-08-11T06:01:52;28.20;52.20
23051;DHT22;11693;51.358;12.410;2022-08-11T06:04:25;28.10;52.40
23051;DHT22;11693;51.358;12.410;2022-08-11T06:06:58;28.30;52.40
23051;DHT22;11693;51.358;12.410;2022-08-11T06:09:33;28.50;52.10
23051;DHT22;11693;51.358;12.410;2022-08-11T06:12:08;28.50;52.20
23051;DHT22;11693;51.358;12.410;2022-08-11T06:14:42;28.60;52.10
23051;DHT22;11693;51.358;12.410;2022-08-11T06:17:09;28.90;51.60
23051;DHT22;11693;51.358;12.410;2022-08-11T06:19:42;29.10;51.50
23051;DHT22;11693;51.358;12.410;2022-08-11T06:22:11;29.20;51.00
23051;DHT22;11693;51.358;12.410;2022-08-11T06:24:40;29.40;51.40
23051;DHT22;11693;51.358;12.410;2022-08-11T06:27:07;29.70;51.00
23051;DHT22;11693;51.358;12.410;2022-08-11T06:29:36;29.80;51.00
23051;DHT22;11693;51.358;12.410;2022-08-11T06:32:05;30.00;50.50
23051;DHT22;11693;51.358;12.410;2022-08-11T06:37:32;30.40;49.20
23051;DHT22;11693;51.358;12.410;2022-08-11T06:40:07;30.40;49.30
23051;DHT22;11693;51.358;12.410;2022-08-11T06:46:00;30.30;49.30
23051;DHT22;11693;51.358;12.410;2022-08-11T06:48:30;30.30;49.40
23051;DHT22;11693;51.358;12.410;2022-08-11T06:51:02;30.50;49.40
23051;DHT22;11693;51.358;12.410;2022-08-11T06:53:46;30.70;49.20
23051;DHT22;11693;51.358;12.410;2022-08-11T06:56:14;31.20;49.00
23051;DHT22;11693;51.358;12.410;2022-08-11T06:59:00;31.30;48.60
23051;DHT22;11693;51.358;12.410;2022-08-11T07:04:39;31.70;47.70
23051;DHT22;11693;51.358;12.410;2022-08-11T07:10:29;31.90;47.10
23051;DHT22;11693;51.358;12.410;2022-08-11T07:13:18;31.90;47.10
23051;DHT22;11693;51.358;12.410;2022-08-11T07:16:05;32.20;46.50
23051;DHT22;11693;51.358;12.410;2022-08-11T07:18:34;31.90;47.10
23051;DHT22;11693;51.358;12.410;2022-08-11T07:21:33;31.90;47.50
23051;DHT22;11693;51.358;12.410;2022-08-11T07:24:25;32.40;47.00
23051;DHT22;11693;51.358;12.410;2022-08-11T07:27:14;32.70;46.30
23051;DHT22;11693;51.358;12.410;2022-08-11T07:30:02;33.00;45.30
23051;DHT22;11693;51.358;12.410;2022-08-11T07:32:31;33.10;45.10
23051;DHT22;11693;51.358;12.410;2022-08-11T07:35:10;33.30;45.20
23051;DHT22;11693;51.358;12.410;2022-08-11T07:37:49;33.40;44.70
23051;DHT22;11693;51.358;12.410;2022-08-11T07:40:23;33.40;44.90
23051;DHT22;11693;51.358;12.410;2022-08-11T07:42:50;33.50;44.60
23051;DHT22;11693;51.358;12.410;2022-08-11T07:45:17;33.50;44.60
23051;DHT22;11693;51.358;12.410;2022-08-11T07:48:02;33.70;44.60
23051;DHT22;11693;51.358;12.410;2022-08-11T07:50:47;33.90;44.40
23051;DHT22;11693;51.358;12.410;2022-08-11T07:53:33;34.10;44.10
23051;DHT22;11693;51.358;12.410;2022-08-11T07:56:02;34.50;43.50
23051;DHT22;11693;51.358;12.410;2022-08-11T07:58:30;34.50;42.90
23051;DHT22;11693;51.358;12.410;2022-08-11T08:01:20;34.30;43.50
23051;DHT22;11693;51.358;12.410;2022-08-11T08:04:06;34.50;42.90
23051;DHT22;11693;51.358;12.410;2022-08-11T08:06:51;34.40;42.80
23051;DHT22;11693;51.358;12.410;2022-08-11T08:09:37;34.70;42.40
23051;DHT22;11693;51.358;12.410;2022-08-11T08:12:23;35.00;42.20
23051;DHT22;11693;51.358;12.410;2022-08-11T08:15:09;35.30;42.00
23051;DHT22;11693;51.358;12.410;2022-08-11T08:17:56;35.60;41.80
23051;DHT22;11693;51.358;12.410;2022-08-11T08:20:29;35.80;41.00
23051;DHT22;11693;51.358;12.410;2022-08-11T08:22:58;35.90;40.80
23051;DHT22;11693;51.358;12.410;2022-08-11T08:25:26;35.90;40.80
23051;DHT22;11693;51.358;12.410;2022-08-11T08:27:54;36.00;40.90
23051;DHT22;11693;51.358;12.410;2022-08-11T08:30:21;36.20;40.60
23051;DHT22;11693;51.358;12.410;2022-08-11T08:33:05;36.30;40.70
23051;DHT22;11693;51.358;12.410;2022-08-11T08:35:34;36.40;40.20
23051;DHT22;11693;51.358;12.410;2022-08-11T08:37:59;36.50;39.50
23051;DHT22;11693;51.358;12.410;2022-08-11T08:40:26;36.40;39.20
23051;DHT22;11693;51.358;12.410;2022-08-11T08:42:54;36.50;39.20
23051;DHT22;11693;51.358;12.410;2022-08-11T08:45:21;36.60;39.10
23051;DHT22;11693;51.358;12.410;2022-08-11T08:47:58;36.70;38.90
23051;DHT22;11693;51.358;12.410;2022-08-11T08:50:26;36.70;38.80
23051;DHT22;11693;51.358;12.410;2022-08-11T08:53:13;36.60;39.10
23051;DHT22;11693;51.358;12.410;2022-08-11T08:55:42;36.70;38.60
23051;DHT22;11693;51.358;12.410;2022-08-11T08:58:10;36.80;38.50
23051;DHT22;11693;51.358;12.410;2022-08-11T09:00:39;36.80;38.90
23051;DHT22;11693;51.358;12.410;2022-08-11T09:03:05;36.40;38.70
23051;DHT22;11693;51.358;12.410;2022-08-11T09:05:31;36.40;37.70
23051;DHT22;11693;51.358;12.410;2022-08-11T09:07:57;36.20;38.00
23051;DHT22;11693;51.358;12.410;2022-08-11T09:10:23;36.10;38.10
23051;DHT22;11693;51.358;12.410;2022-08-11T09:12:50;36.00;38.60
23051;DHT22;11693;51.358;12.410;2022-08-11T09:15:17;35.70;37.60
23051;DHT22;11693;51.358;12.410;2022-08-11T09:17:45;35.50;38.20
23051;DHT22;11693;51.358;12.410;2022-08-11T09:20:21;35.50;38.30
23051;DHT22;11693;51.358;12.410;2022-08-11T09:22:50;35.70;38.80
23051;DHT22;11693;51.358;12.410;2022-08-11T09:25:35;36.00;38.40
23051;DHT22;11693;51.358;12.410;2022-08-11T09:28:20;36.00;38.20
23051;DHT22;11693;51.358;12.410;2022-08-11T09:30:50;35.70;38.10
23051;DHT22;11693;51.358;12.410;2022-08-11T09:33:20;35.30;37.90
23051;DHT22;11693;51.358;12.410;2022-08-11T09:35:48;35.10;38.80
23051;DHT22;11693;51.358;12.410;2022-08-11T09:38:16;35.20;39.10
23051;DHT22;11693;51.358;12.410;2022-08-11T09:41:06;35.40;39.20
23051;DHT22;11693;51.358;12.410;2022-08-11T09:43:38;35.80;37.80
23051;DHT22;11693;51.358;12.410;2022-08-11T09:46:25;35.70;37.60
23051;DHT22;11693;51.358;12.410;2022-08-11T09:48:53;35.70;37.80
23051;DHT22;11693;51.358;12.410;2022-08-11T09:51:21;35.90;37.60
23051;DHT22;11693;51.358;12.410;2022-08-11T09:53:48;36.20;38.30
23051;DHT22;11693;51.358;12.410;2022-08-11T09:56:20;36.00;37.90
23051;DHT22;11693;51.358;12.410;2022-08-11T09:59:06;35.90;37.90
23051;DHT22;11693;51.358;12.410;2022-08-11T10:01:47;35.70;37.40
23051;DHT22;11693;51.358;12.410;2022-08-11T10:04:21;35.60;37.60
23051;DHT22;11693;51.358;12.410;2022-08-11T10:06:52;35.60;38.00
23051;DHT22;11693;51.358;12.410;2022-08-11T10:12:02;36.10;37.00
23051;DHT22;11693;51.358;12.410;2022-08-11T10:14:30;36.00;36.60
23051;DHT22;11693;51.358;12.410;2022-08-11T10:17:17;36.10;37.70
23051;DHT22;11693;51.358;12.410;2022-08-11T10:19:48;36.20;36.90
23051;DHT22;11693;51.358;12.410;2022-08-11T10:22:16;36.30;37.20
23051;DHT22;11693;51.358;12.410;2022-08-11T10:25:02;36.40;36.60
23051;DHT22;11693;51.358;12.410;2022-08-11T10:27:47;36.60;37.50
23051;DHT22;11693;51.358;12.410;2022-08-11T10:30:24;37.10;36.70
23051;DHT22;11693;51.358;12.410;2022-08-11T10:33:11;37.30;35.20
23051;DHT22;11693;51.358;12.410;2022-08-11T10:35:56;37.20;35.20
23051;DHT22;11693;51.358;12.410;2022-08-11T10:38:22;36.70;36.40
23051;DHT22;11693;51.358;12.410;2022-08-11T10:40:49;36.60;36.60
23051;DHT22;11693;51.358;12.410;2022-08-11T10:43:39;36.30;36.70
23051;DHT22;11693;51.358;12.410;2022-08-11T10:46:08;35.60;37.50
23051;DHT22;11693;51.358;12.410;2022-08-11T10:48:54;35.70;37.20
23051;DHT22;11693;51.358;12.410;2022-08-11T10:51:22;36.10;37.30
23051;DHT22;11693;51.358;12.410;2022-08-11T10:54:07;37.00;36.30
23051;DHT22;11693;51.358;12.410;2022-08-11T10:56:52;37.80;35.60
23051;DHT22;11693;51.358;12.410;2022-08-11T10:59:37;37.80;34.60
23051;DHT22;11693;51.358;12.410;2022-08-11T11:02:03;37.70;34.50
23051;DHT22;11693;51.358;12.410;2022-08-11T11:05:04;37.20;34.70
23051;DHT22;11693;51.358;12.410;2022-08-11T11:08:00;36.90;35.30
23051;DHT22;11693;51.358;12.410;2022-08-11T11:10:51;37.20;35.10
23051;DHT22;11693;51.358;12.410;2022-08-11T11:13:18;37.00;35.30
23051;DHT22;11693;51.358;12.410;2022-08-11T11:16:04;37.20;34.90
23051;DHT22;11693;51.358;12.410;2022-08-11T11:18:48;37.60;35.30
23051;DHT22;11693;51.358;12.410;2022-08-11T11:21:18;38.40;34.90
23051;DHT22;11693;51.358;12.410;2022-08-11T11:37:41;40.30;31.80
23051;DHT22;11693;51.358;12.410;2022-08-11T11:40:12;40.30;32.50
23051;DHT22;11693;51.358;12.410;2022-08-11T11:42:40;41.20;31.90
23051;DHT22;11693;51.358;12.410;2022-08-11T11:45:08;41.80;31.40
23051;DHT22;11693;51.358;12.410;2022-08-11T11:47:35;41.40;30.60
23051;DHT22;11693;51.358;12.410;2022-08-11T11:50:02;40.40;30.80
23051;DHT22;11693;51.358;12.410;2022-08-11T11:52:28;40.00;31.50
23051;DHT22;11693;51.358;12.410;2022-08-11T11:54:56;39.70;31.60
23051;DHT22;11693;51.358;12.410;2022-08-11T11:57:22;39.40;31.50
23051;DHT22;11693;51.358;12.410;2022-08-11T12:00:11;39.80;31.80
23051;DHT22;11693;51.358;12.410;2022-08-11T12:02:58;40.90;30.20
23051;DHT22;11693;51.358;12.410;2022-08-11T12:05:25;40.50;29.80
23051;DHT22;11693;51.358;12.410;2022-08-11T12:07:52;40.80;30.40
23051;DHT22;11693;51.358;12.410;2022-08-11T12:10:52;41.80;30.00
23051;DHT22;11693;51.358;12.410;2022-08-11T12:13:42;42.80;29.50
23051;DHT22;11693;51.358;12.410;2022-08-11T12:16:10;43.10;29.50
23051;DHT22;11693;51.358;12.410;2022-08-11T12:18:36;43.40;29.90
23051;DHT22;11693;51.358;12.410;2022-08-11T12:21:04;43.60;29.40
23051;DHT22;11693;51.358;12.410;2022-08-11T12:23:31;43.40;29.00
23051;DHT22;11693;51.358;12.410;2022-08-11T12:26:17;42.70;29.30
23051;DHT22;11693;51.358;12.410;2022-08-11T12:29:04;42.20;29.70
23051;DHT22;11693;51.358;12.410;2022-08-11T12:31:33;42.20;29.20
23051;DHT22;11693;51.358;12.410;2022-08-11T12:34:08;42.20;29.10
23051;DHT22;11693;51.358;12.410;2022-08-11T12:36:44;41.80;29.50
23051;DHT22;11693;51.358;12.410;2022-08-11T12:39:12;41.60;29.90
23051;DHT22;11693;51.358;12.410;2022-08-11T12:41:42;41.50;30.00
23051;DHT22;11693;51.358;12.410;2022-08-11T12:44:28;41.70;29.90
23051;DHT22;11693;51.358;12.410;2022-08-11T12:47:16;42.30;29.10
23051;DHT22;11693;51.358;12.410;2022-08-11T12:49:48;42.10;29.80
23051;DHT22;11693;51.358;12.410;2022-08-11T12:52:37;42.00;29.90
23051;DHT22;11693;51.358;12.410;2022-08-11T12:55:12;42.20;29.90
23051;DHT22;11693;51.358;12.410;2022-08-11T12:58:00;42.50;29.60
23051;DHT22;11693;51.358;12.410;2022-08-11T13:00:42;42.20;29.70
23051;DHT22;11693;51.358;12.410;2022-08-11T13:03:27;42.10;29.00
23051;DHT22;11693;51.358;12.410;2022-08-11T13:06:12;42.20;29.40
23051;DHT22;11693;51.358;12.410;2022-08-11T13:08:39;42.10;29.00
23051;DHT22;11693;51.358;12.410;2022-08-11T13:11:06;42.40;29.10
23051;DHT22;11693;51.358;12.410;2022-08-11T13:13:51;42.80;28.90
23051;DHT22;11693;51.358;12.410;2022-08-11T13:16:27;43.00;28.90
23051;DHT22;11693;51.358;12.410;2022-08-11T13:18:55;43.40;28.70
23051;DHT22;11693;51.358;12.410;2022-08-11T13:21:21;43.30;28.40
23051;DHT22;11693;51.358;12.410;2022-08-11T13:23:52;43.10;29.00
23051;DHT22;11693;51.358;12.410;2022-08-11T13:26:19;42.70;28.10
23051;DHT22;11693;51.358;12.410;2022-08-11T13:28:46;42.10;28.80
23051;DHT22;11693;51.358;12.410;2022-08-11T13:31:12;41.70;29.60
23051;DHT22;11693;51.358;12.410;2022-08-11T13:33:48;41.90;29.50
23051;DHT22;11693;51.358;12.410;2022-08-11T13:36:20;42.70;29.10
23051;DHT22;11693;51.358;12.410;2022-08-11T13:38:49;43.40;28.20
23051;DHT22;11693;51.358;12.410;2022-08-11T13:41:17;43.20;28.50
23051;DHT22;11693;51.358;12.410;2022-08-11T13:44:08;43.10;28.20
23051;DHT22;11693;51.358;12.410;2022-08-11T13:46:34;42.80;28.70
23051;DHT22;11693;51.358;12.410;2022-08-11T13:49:01;42.80;28.10
23051;DHT22;11693;51.358;12.410;2022-08-11T13:51:27;42.80;28.60
23051;DHT22;11693;51.358;12.410;2022-08-11T13:54:08;43.20;28.60
23051;DHT22;11693;51.358;12.410;2022-08-11T13:56:36;42.90;28.70
23051;DHT22;11693;51.358;12.410;2022-08-11T13:59:07;42.00;29.20
23051;DHT22;11693;51.358;12.410;2022-08-11T14:01:41;41.50;29.20
23051;DHT22;11693;51.358;12.410;2022-08-11T14:04:11;40.90;29.80
23051;DHT22;11693;51.358;12.410;2022-08-11T14:06:44;40.90;29.80
23051;DHT22;11693;51.358;12.410;2022-08-11T14:09:11;41.20;29.70
23051;DHT22;11693;51.358;12.410;2022-08-11T14:11:40;40.30;29.90
23051;DHT22;11693;51.358;12.410;2022-08-11T14:14:30;40.00;30.00
23051;DHT22;11693;51.358;12.410;2022-08-11T14:17:03;39.50;30.10
23051;DHT22;11693;51.358;12.410;2022-08-11T14:19:29;39.00;30.70
23051;DHT22;11693;51.358;12.410;2022-08-11T14:21:58;38.40;31.20
23051;DHT22;11693;51.358;12.410;2022-08-11T14:24:39;38.20;31.50
23051;DHT22;11693;51.358;12.410;2022-08-11T14:27:10;38.00;31.90
23051;DHT22;11693;51.358;12.410;2022-08-11T14:29:39;37.40;32.60
23051;DHT22;11693;51.358;12.410;2022-08-11T14:32:15;37.10;32.80
23051;DHT22;11693;51.358;12.410;2022-08-11T14:34:42;36.70;33.50
23051;DHT22;11693;51.358;12.410;2022-08-11T14:37:11;36.30;33.70
23051;DHT22;11693;51.358;12.410;2022-08-11T14:39:43;35.90;34.40
23051;DHT22;11693;51.358;12.410;2022-08-11T14:42:11;35.70;34.80
23051;DHT22;11693;51.358;12.410;2022-08-11T14:44:59;35.50;34.70
23051;DHT22;11693;51.358;12.410;2022-08-11T14:47:47;35.10;34.90
23051;DHT22;11693;51.358;12.410;2022-08-11T14:50:16;34.50;35.60
23051;DHT22;11693;51.358;12.410;2022-08-11T14:52:50;34.10;36.30
23051;DHT22;11693;51.358;12.410;2022-08-11T14:55:17;33.80;36.50
23051;DHT22;11693;51.358;12.410;2022-08-11T14:58:03;33.60;36.50
23051;DHT22;11693;51.358;12.410;2022-08-11T15:00:30;33.50;36.80
23051;DHT22;11693;51.358;12.410;2022-08-11T15:02:57;33.50;37.40
23051;DHT22;11693;51.358;12.410;2022-08-11T15:05:43;33.50;37.00
23051;DHT22;11693;51.358;12.410;2022-08-11T15:08:13;33.60;36.90
23051;DHT22;11693;51.358;12.410;2022-08-11T15:10:40;33.60;36.50
23051;DHT22;11693;51.358;12.410;2022-08-11T15:13:06;33.30;36.70
23051;DHT22;11693;51.358;12.410;2022-08-11T15:15:32;33.10;37.20
23051;DHT22;11693;51.358;12.410;2022-08-11T15:18:19;33.00;37.30
23051;DHT22;11693;51.358;12.410;2022-08-11T15:20:48;32.90;37.60
23051;DHT22;11693;51.358;12.410;2022-08-11T15:23:33;33.00;37.20
23051;DHT22;11693;51.358;12.410;2022-08-11T15:26:27;32.90;37.40
23051;DHT22;11693;51.358;12.410;2022-08-11T15:29:14;33.00;37.50
23051;DHT22;11693;51.358;12.410;2022-08-11T15:32:02;33.10;37.10
23051;DHT22;11693;51.358;12.410;2022-08-11T15:34:54;33.00;37.20
23051;DHT22;11693;51.358;12.410;2022-08-11T15:37:42;33.00;37.30
23051;DHT22;11693;51.358;12.410;2022-08-11T15:40:15;32.70;37.70
23051;DHT22;11693;51.358;12.410;2022-08-11T15:43:10;32.70;37.90
23051;DHT22;11693;51.358;12.410;2022-08-11T15:45:57;32.80;37.90
23051;DHT22;11693;51.358;12.410;2022-08-11T15:51:07;33.00;37.70
23051;DHT22;11693;51.358;12.410;2022-08-11T15:53:47;33.00;37.70
23051;DHT22;11693;51.358;12.410;2022-08-11T15:56:16;32.80;37.60
23051;DHT22;11693;51.358;12.410;2022-08-11T15:58:48;32.50;37.60
23051;DHT22;11693;51.358;12.410;2022-08-11T16:01:36;32.40;38.00
23051;DHT22;11693;51.358;12.410;2022-08-11T16:04:24;32.50;37.80
23051;DHT22;11693;51.358;12.410;2022-08-11T16:09:54;32.60;37.60
23051;DHT22;11693;51.358;12.410;2022-08-11T16:12:27;32.70;37.50
23051;DHT22;11693;51.358;12.410;2022-08-11T16:15:05;32.60;37.20
23051;DHT22;11693;51.358;12.410;2022-08-11T16:17:56;32.50;37.30
23051;DHT22;11693;51.358;12.410;2022-08-11T16:20:25;32.40;37.40
23051;DHT22;11693;51.358;12.410;2022-08-11T16:22:55;32.50;37.40
23051;DHT22;11693;51.358;12.410;2022-08-11T16:25:23;32.40;36.90
23051;DHT22;11693;51.358;12.410;2022-08-11T16:27:52;32.30;37.30
23051;DHT22;11693;51.358;12.410;2022-08-11T16:30:18;32.30;37.40
23051;DHT22;11693;51.358;12.410;2022-08-11T16:32:46;32.20;37.40
23051;DHT22;11693;51.358;12.410;2022-08-11T16:35:18;32.10;37.30
23051;DHT22;11693;51.358;12.410;2022-08-11T16:38:04;32.10;37.40
23051;DHT22;11693;51.358;12.410;2022-08-11T16:40:51;31.90;37.80
23051;DHT22;11693;51.358;12.410;2022-08-11T16:43:20;31.90;37.20
23051;DHT22;11693;51.358;12.410;2022-08-11T16:46:06;31.90;37.40
23051;DHT22;11693;51.358;12.410;2022-08-11T16:49:05;32.00;36.80
23051;DHT22;11693;51.358;12.410;2022-08-11T16:51:31;32.00;36.60
23051;DHT22;11693;51.358;12.410;2022-08-11T16:53:57;31.90;36.70
23051;DHT22;11693;51.358;12.410;2022-08-11T16:56:41;32.10;36.50
23051;DHT22;11693;51.358;12.410;2022-08-11T16:59:30;32.00;36.40
23051;DHT22;11693;51.358;12.410;2022-08-11T17:02:16;31.90;36.40
23051;DHT22;11693;51.358;12.410;2022-08-11T17:05:08;32.00;36.60
23051;DHT22;11693;51.358;12.410;2022-08-11T17:07:54;32.00;36.40
23051;DHT22;11693;51.358;12.410;2022-08-11T17:10:54;31.90;36.20
23051;DHT22;11693;51.358;12.410;2022-08-11T17:13:47;32.00;36.20
23051;DHT22;11693;51.358;12.410;2022-08-11T17:16:19;32.00;36.00
23051;DHT22;11693;51.358;12.410;2022-08-11T17:18:49;32.10;36.00
23051;DHT22;11693;51.358;12.410;2022-08-11T17:21:17;32.00;35.90
23051;DHT22;11693;51.358;12.410;2022-08-11T17:23:48;31.90;36.00
23051;DHT22;11693;51.358;12.410;2022-08-11T17:26:28;31.90;35.90
23051;DHT22;11693;51.358;12.410;2022-08-11T17:29:24;31.80;36.00
23051;DHT22;11693;51.358;12.410;2022-08-11T17:31:51;31.80;36.10
23051;DHT22;11693;51.358;12.410;2022-08-11T17:34:38;31.70;36.20
23051;DHT22;11693;51.358;12.410;2022-08-11T17:37:23;31.60;36.10
23051;DHT22;11693;51.358;12.410;2022-08-11T17:39:50;31.40;36.40
23051;DHT22;11693;51.358;12.410;2022-08-11T17:42:18;31.50;35.90
23051;DHT22;11693;51.358;12.410;2022-08-11T17:45:03;31.40;36.30
23051;DHT22;11693;51.358;12.410;2022-08-11T17:47:49;31.30;36.10
23051;DHT22;11693;51.358;12.410;2022-08-11T17:50:35;31.20;36.10
23051;DHT22;11693;51.358;12.410;2022-08-11T17:53:02;31.10;35.40
23051;DHT22;11693;51.358;12.410;2022-08-11T17:55:47;31.20;35.30
23051;DHT22;11693;51.358;12.410;2022-08-11T17:58:33;31.10;35.20
23051;DHT22;11693;51.358;12.410;2022-08-11T18:01:26;30.90;35.40
23051;DHT22;11693;51.358;12.410;2022-08-11T18:03:53;31.00;35.30
23051;DHT22;11693;51.358;12.410;2022-08-11T18:06:20;31.00;35.50
23051;DHT22;11693;51.358;12.410;2022-08-11T18:08:48;30.90;35.60
23051;DHT22;11693;51.358;12.410;2022-08-11T18:11:33;30.90;35.70
23051;DHT22;11693;51.358;12.410;2022-08-11T18:14:20;30.90;35.80
23051;DHT22;11693;51.358;12.410;2022-08-11T18:17:05;30.80;35.80
23051;DHT22;11693;51.358;12.410;2022-08-11T18:19:49;30.70;36.10
23051;DHT22;11693;51.358;12.410;2022-08-11T18:22:39;30.70;36.20
23051;DHT22;11693;51.358;12.410;2022-08-11T18:25:30;30.60;36.10
23051;DHT22;11693;51.358;12.410;2022-08-11T18:28:20;30.60;36.20
23051;DHT22;11693;51.358;12.410;2022-08-11T18:31:08;30.50;36.50
23051;DHT22;11693;51.358;12.410;2022-08-11T18:33:55;30.30;36.50
23051;DHT22;11693;51.358;12.410;2022-08-11T18:36:46;30.20;36.60
23051;DHT22;11693;51.358;12.410;2022-08-11T18:39:35;30.10;36.70
23051;DHT22;11693;51.358;12.410;2022-08-11T18:42:26;30.10;36.70
23051;DHT22;11693;51.358;12.410;2022-08-11T18:45:13;30.10;36.80
23051;DHT22;11693;51.358;12.410;2022-08-11T18:48:02;30.00;36.80
23051;DHT22;11693;51.358;12.410;2022-08-11T18:50:47;30.10;37.40
23051;DHT22;11693;51.358;12.410;2022-08-11T18:53:35;29.90;37.00
23051;DHT22;11693;51.358;12.410;2022-08-11T18:56:21;29.70;37.20
23051;DHT22;11693;51.358;12.410;2022-08-11T18:59:08;29.70;37.40
23051;DHT22;11693;51.358;12.410;2022-08-11T19:01:55;29.50;37.60
23051;DHT22;11693;51.358;12.410;2022-08-11T19:04:41;29.50;37.70
23051;DHT22;11693;51.358;12.410;2022-08-11T19:07:27;29.50;37.70
23051;DHT22;11693;51.358;12.410;2022-08-11T19:10:14;29.30;38.00
23051;DHT22;11693;51.358;12.410;2022-08-11T19:12:59;29.20;38.10
23051;DHT22;11693;51.358;12.410;2022-08-11T19:15:44;29.20;38.30
23051;DHT22;11693;51.358;12.410;2022-08-11T19:18:29;29.10;38.40
23051;DHT22;11693;51.358;12.410;2022-08-11T19:21:14;29.00;38.40
23051;DHT22;11693;51.358;12.410;2022-08-11T19:24:02;28.90;38.50
23051;DHT22;11693;51.358;12.410;2022-08-11T19:26:49;28.90;38.70
23051;DHT22;11693;51.358;12.410;2022-08-11T19:29:35;28.70;38.70
23051;DHT22;11693;51.358;12.410;2022-08-11T19:32:19;28.70;38.90
23051;DHT22;11693;51.358;12.410;2022-08-11T19:35:05;28.60;39.00
23051;DHT22;11693;51.358;12.410;2022-08-11T19:37:50;28.60;39.00
23051;DHT22;11693;51.358;12.410;2022-08-11T19:40:36;28.40;39.20
23051;DHT22;11693;51.358;12.410;2022-08-11T19:43:23;28.30;39.40
23051;DHT22;11693;51.358;12.410;2022-08-11T19:46:09;28.20;39.50
23051;DHT22;11693;51.358;12.410;2022-08-11T19:48:54;28.00;39.80
23051;DHT22;11693;51.358;12.410;2022-08-11T19:51:41;28.10;39.90
23051;DHT22;11693;51.358;12.410;2022-08-11T19:54:29;28.10;39.90
23051;DHT22;11693;51.358;12.410;2022-08-11T19:57:16;28.10;39.90
23051;DHT22;11693;51.358;12.410;2022-08-11T20:00:01;28.00;40.00